Time;durP1;ratioP1;P1;durP2;ratioP2;P2;SDS_P1;SDS_P2;PMS_P1;PMS_P2;Temp;Humidity;BMP_temperature;BMP_pressure;BME280_temperature;BME280_humidity;BME280_pressure;Samples;Min_cycle;Max_cycle;Signal;HPM_P1;HPM_P2
2023/01/18 00:01:36;;;;;;;6.18;0.68;;;;;;;;;;4783430;29;20063;-77
2023/01/18 00:04:05;;;;;;;2.28;0.80;;;;;;;;;;4782152;29;20059;-77
2023/01/18 00:06:36;;;;;;;2.15;0.60;;;;;;;;;;4783408;29;20058;-77
2023/01/18 00:09:06;;;;;;;3.72;0.60;;;;;;;;;;4783562;30;20051;-78
2023/01/18 00:11:36;;;;;;;7.60;1.02;;;;;;;;;;4782031;30;20051;-75
2023/01/18 00:14:07;;;;;;;2.97;0.63;;;;;;;;;;4783044;30;20058;-76
2023/01/18 00:16:39;;;;;;;3.83;0.82;;;;;;;;;;4782900;30;20047;-78
2023/01/18 00:19:12;;;;;;;4.95;0.70;;;;;;;;;;4783685;29;20055;-75
2023/01/18 00:21:42;;;;;;;1.98;0.63;;;;;;;;;;4783725;30;20043;-78
2023/01/18 00:24:13;;;;;;;6.28;1.00;;;;;;;;;;4783150;30;20063;-76
2023/01/18 00:26:44;;;;;;;2.47;0.60;;;;;;;;;;4783038;30;20070;-78
2023/01/18 00:29:15;;;;;;;4.72;0.60;;;;;;;;;;4783313;30;20055;-77
2023/01/18 00:31:46;;;;;;;2.70;0.77;;;;;;;;;;4782971;30;20090;-75
2023/01/18 00:34:16;;;;;;;8.27;0.60;;;;;;;;;;4782496;29;20063;-78
2023/01/18 00:36:48;;;;;;;4.80;0.90;;;;;;;;;;4783019;29;20500;-78
2023/01/18 00:39:19;;;;;;;3.78;0.70;;;;;;;;;;4782581;30;20055;-75
2023/01/18 00:44:38;;;;;;;8.95;0.70;;;;;;;;;;4782793;30;20059;-77
2023/01/18 00:47:08;;;;;;;12.48;1.40;;;;;;;;;;4783184;30;20059;-77
2023/01/18 00:49:39;;;;;;;7.22;1.08;;;;;;;;;;4787875;29;20051;-78
2023/01/18 00:52:08;;;;;;;6.50;1.83;;;;;;;;;;4790856;29;20055;-79
2023/01/18 00:54:39;;;;;;;6.88;1.27;;;;;;;;;;4789931;29;20039;-77
2023/01/18 00:57:09;;;;;;;4.78;0.90;;;;;;;;;;4790010;29;20083;-76
2023/01/18 00:59:41;;;;;;;6.45;0.80;;;;;;;;;;4787729;29;20052;-76
2023/01/18 01:02:13;;;;;;;8.48;0.70;;;;;;;;;;4790184;29;20066;-76
2023/01/18 01:07:31;;;;;;;2.70;0.70;;;;;;;;;;4789888;29;20051;-77
2023/01/18 01:10:07;;;;;;;2.70;0.70;;;;;;;;;;4783919;29;20047;-77
2023/01/18 01:26:44;;;;;;;3.70;1.17;;;;;;;;;;4781462;30;20059;-75
2023/01/18 01:29:15;;;;;;;1.58;0.73;;;;;;;;;;4780748;30;20063;-76
2023/01/18 01:31:47;;;;;;;4.07;1.42;;;;;;;;;;4781686;30;20055;-76
2023/01/18 01:34:18;;;;;;;3.67;1.00;;;;;;;;;;4781688;30;20427;-76
2023/01/18 01:36:50;;;;;;;5.80;0.80;;;;;;;;;;4751128;30;20070;-77
2023/01/18 01:39:22;;;;;;;7.25;1.02;;;;;;;;;;4780318;30;20059;-77
2023/01/18 01:41:54;;;;;;;6.20;0.68;;;;;;;;;;4781580;30;20059;-77
2023/01/18 01:44:26;;;;;;;7.03;1.10;;;;;;;;;;4782267;30;20062;-79
2023/01/18 01:47:03;;;;;;;7.95;0.80;;;;;;;;;;4781133;29;20070;-78
2023/01/18 01:49:38;;;;;;;5.40;0.98;;;;;;;;;;4765417;30;20059;-79
2023/01/18 01:52:19;;;;;;;8.45;1.92;;;;;;;;;;4779951;30;20416;-76
2023/01/18 01:54:54;;;;;;;5.35;0.85;;;;;;;;;;4781315;29;20066;-76
2023/01/18 01:57:35;;;;;;;6.30;0.93;;;;;;;;;;4779609;30;20068;-76
2023/01/18 02:00:18;;;;;;;9.30;0.88;;;;;;;;;;4781538;30;20052;-76
2023/01/18 02:03:02;;;;;;;5.93;0.70;;;;;;;;;;4781431;30;20051;-75
2023/01/18 02:05:35;;;;;;;7.68;0.80;;;;;;;;;;4782311;29;20499;-76
2023/01/18 02:08:10;;;;;;;3.38;0.60;;;;;;;;;;4785330;30;20063;-76
2023/01/18 02:10:41;;;;;;;6.50;0.98;;;;;;;;;;4785526;30;20067;-76
2023/01/18 02:13:12;;;;;;;5.20;1.00;;;;;;;;;;4785585;29;20537;-76
2023/01/18 02:15:48;;;;;;;8.90;0.80;;;;;;;;;;4785809;30;20508;-76
2023/01/18 02:18:31;;;;;;;3.85;1.02;;;;;;;;;;4783665;30;20070;-77
2023/01/18 02:21:16;;;;;;;4.63;1.05;;;;;;;;;;4785770;30;20051;-77
2023/01/18 02:24:22;;;;;;;4.28;0.60;;;;;;;;;;4784452;29;20067;-77
2023/01/18 02:27:04;;;;;;;3.60;0.80;;;;;;;;;;4785148;30;20051;-76
2023/01/18 02:30:09;;;;;;;2.35;0.50;;;;;;;;;;4784972;30;20059;-76
2023/01/18 02:32:47;;;;;;;8.65;1.02;;;;;;;;;;4783943;30;20070;-76
2023/01/18 02:35:30;;;;;;;2.72;0.75;;;;;;;;;;4784632;30;20085;-75
2023/01/18 02:38:23;;;;;;;2.92;0.73;;;;;;;;;;4784748;30;20063;-77
2023/01/18 02:41:08;;;;;;;3.35;1.20;;;;;;;;;;4785080;30;20043;-76
2023/01/18 02:46:34;;;;;;;3.97;0.95;;;;;;;;;;4785010;30;20051;-76
2023/01/18 02:49:20;;;;;;;5.18;1.17;;;;;;;;;;4785014;30;20058;-77
2023/01/18 02:52:03;;;;;;;8.27;0.90;;;;;;;;;;4784584;30;20109;-77
2023/01/18 02:54:39;;;;;;;6.45;0.90;;;;;;;;;;4784227;30;20055;-77
2023/01/18 02:57:15;;;;;;;5.38;1.00;;;;;;;;;;4784392;29;20527;-77
2023/01/18 02:59:50;;;;;;;6.30;1.00;;;;;;;;;;4784922;30;20496;-76
2023/01/18 03:02:25;;;;;;;4.20;0.68;;;;;;;;;;4784706;30;20055;-77
2023/01/18 03:04:56;;;;;;;5.38;1.00;;;;;;;;;;4784783;30;20078;-78
2023/01/18 03:07:35;;;;;;;5.47;0.90;;;;;;;;;;4784521;30;20130;-77
2023/01/18 03:10:09;;;;;;;4.00;0.95;;;;;;;;;;4785589;30;20535;-77
2023/01/18 03:13:20;;;;;;;4.40;1.15;;;;;;;;;;4784484;30;20565;-77
2023/01/18 03:15:56;;;;;;;4.78;1.10;;;;;;;;;;4784687;30;20067;-77
2023/01/18 03:19:01;;;;;;;3.35;0.90;;;;;;;;;;4783211;30;20062;-76
2023/01/18 03:21:42;;;;;;;8.27;1.17;;;;;;;;;;4784687;30;20416;-76
2023/01/18 03:24:15;;;;;;;3.92;1.33;;;;;;;;;;4784274;29;20516;-75
2023/01/18 03:26:53;;;;;;;4.93;1.10;;;;;;;;;;4784513;30;20051;-77
2023/01/18 03:35:15;;;;;;;4.88;0.93;;;;;;;;;;4784079;30;20058;-76
2023/01/18 03:37:53;;;;;;;7.25;1.25;;;;;;;;;;4782656;30;20070;-77
2023/01/18 03:40:28;;;;;;;5.78;1.17;;;;;;;;;;4786183;30;20719;-76
2023/01/18 03:43:05;;;;;;;5.80;0.90;;;;;;;;;;4784426;30;20062;-76
2023/01/18 03:45:43;;;;;;;11.63;1.17;;;;;;;;;;4784062;30;20062;-77
2023/01/18 03:48:15;;;;;;;1.45;0.50;;;;;;;;;;4784491;30;20062;-77
2023/01/18 03:50:59;;;;;;;4.68;1.02;;;;;;;;;;4784922;30;20052;-75
2023/01/18 03:53:37;;;;;;;5.93;0.80;;;;;;;;;;4784113;30;20735;-77
2023/01/18 03:56:41;;;;;;;4.95;0.98;;;;;;;;;;4783782;30;20411;-77
2023/01/18 03:59:14;;;;;;;3.88;0.90;;;;;;;;;;4775660;30;20447;-77
2023/01/18 04:01:46;;;;;;;5.25;0.90;;;;;;;;;;4783698;30;20440;-78
2023/01/18 04:04:17;;;;;;;7.35;1.00;;;;;;;;;;4782058;30;20055;-78
2023/01/18 04:06:47;;;;;;;6.68;0.85;;;;;;;;;;4783424;30;20043;-76
2023/01/18 04:09:18;;;;;;;4.65;1.10;;;;;;;;;;4783394;30;20052;-76
2023/01/18 04:11:48;;;;;;;7.63;1.20;;;;;;;;;;4783568;30;20431;-77
2023/01/18 04:14:20;;;;;;;2.13;0.70;;;;;;;;;;4783252;30;20055;-76
2023/01/18 04:16:50;;;;;;;2.92;0.70;;;;;;;;;;4783166;30;20047;-78
2023/01/18 04:19:22;;;;;;;4.72;1.23;;;;;;;;;;4782763;30;20431;-76
2023/01/18 04:21:53;;;;;;;2.67;1.13;;;;;;;;;;4783325;30;20059;-77
2023/01/18 04:24:24;;;;;;;3.72;0.70;;;;;;;;;;4783213;29;20063;-77
2023/01/18 04:26:55;;;;;;;3.88;0.63;;;;;;;;;;4782615;30;20055;-76
2023/01/18 04:29:27;;;;;;;2.58;0.65;;;;;;;;;;4782497;29;20059;-76
2023/01/18 04:31:58;;;;;;;2.72;0.60;;;;;;;;;;4783491;30;20051;-77
2023/01/18 04:34:28;;;;;;;5.75;1.15;;;;;;;;;;4783461;29;20503;-76
2023/01/18 04:36:59;;;;;;;6.97;1.38;;;;;;;;;;4782964;30;20382;-75
2023/01/18 04:39:29;;;;;;;7.25;1.42;;;;;;;;;;4783149;30;20055;-76
2023/01/18 04:42:01;;;;;;;3.45;0.63;;;;;;;;;;4783029;30;20554;-76
2023/01/18 04:44:31;;;;;;;5.28;0.90;;;;;;;;;;4782491;30;20047;-76
2023/01/18 04:47:02;;;;;;;4.57;0.60;;;;;;;;;;4782762;30;20044;-77
2023/01/18 04:49:34;;;;;;;4.88;0.80;;;;;;;;;;4783871;30;20075;-76
2023/01/18 04:52:06;;;;;;;5.75;0.73;;;;;;;;;;4783032;29;20062;-80
2023/01/18 04:54:36;;;;;;;6.32;1.20;;;;;;;;;;4784203;30;20062;-76
2023/01/18 04:57:06;;;;;;;4.80;1.27;;;;;;;;;;4782834;30;20520;-75
2023/01/18 04:59:38;;;;;;;8.50;1.00;;;;;;;;;;4783091;30;20419;-76
2023/01/18 05:02:09;;;;;;;6.38;0.80;;;;;;;;;;4783355;30;20051;-76
2023/01/18 05:04:40;;;;;;;6.38;1.35;;;;;;;;;;4782677;30;20051;-75
2023/01/18 05:07:11;;;;;;;7.07;1.60;;;;;;;;;;4782456;30;20519;-76
2023/01/18 05:09:41;;;;;;;4.40;0.88;;;;;;;;;;4783098;30;20059;-76
2023/01/18 05:12:11;;;;;;;8.05;1.00;;;;;;;;;;4783468;30;20055;-76
2023/01/18 05:14:42;;;;;;;11.77;1.50;;;;;;;;;;4783612;30;20431;-75
2023/01/18 05:17:13;;;;;;;3.97;0.90;;;;;;;;;;4780652;30;20057;-75
2023/01/18 05:19:45;;;;;;;5.40;0.90;;;;;;;;;;4782030;30;20435;-75
2023/01/18 05:22:16;;;;;;;4.07;0.95;;;;;;;;;;4782844;30;20051;-75
2023/01/18 05:24:49;;;;;;;7.07;1.00;;;;;;;;;;4783460;29;20060;-74
2023/01/18 05:27:19;;;;;;;5.80;0.90;;;;;;;;;;4783085;30;20055;-75
2023/01/18 05:29:49;;;;;;;3.97;1.13;;;;;;;;;;4782928;29;20043;-76
2023/01/18 05:32:20;;;;;;;8.10;0.90;;;;;;;;;;4783706;30;20043;-77
2023/01/18 05:34:51;;;;;;;4.10;0.70;;;;;;;;;;4782733;29;20055;-75
2023/01/18 05:37:21;;;;;;;10.00;1.02;;;;;;;;;;4782236;30;20059;-76
2023/01/18 05:39:51;;;;;;;6.60;1.10;;;;;;;;;;4782245;29;20546;-75
2023/01/18 05:42:21;;;;;;;8.55;1.10;;;;;;;;;;4781638;30;20050;-76
2023/01/18 05:44:51;;;;;;;6.38;1.17;;;;;;;;;;4781578;29;20420;-77
2023/01/18 05:47:22;;;;;;;7.38;0.98;;;;;;;;;;4782098;30;20075;-75
2023/01/18 05:49:56;;;;;;;5.40;0.90;;;;;;;;;;4782845;30;20055;-75
2023/01/18 05:52:26;;;;;;;2.03;0.90;;;;;;;;;;4780745;30;20063;-77
2023/01/18 05:54:56;;;;;;;9.10;0.93;;;;;;;;;;4782323;30;20066;-76
2023/01/18 05:57:28;;;;;;;8.77;0.75;;;;;;;;;;4781216;30;20048;-75
2023/01/18 06:00:01;;;;;;;5.28;1.00;;;;;;;;;;4782477;29;20431;-77
2023/01/18 06:02:38;;;;;;;7.43;0.80;;;;;;;;;;4785171;30;20071;-75
2023/01/18 06:05:10;;;;;;;6.10;1.00;;;;;;;;;;4780012;30;20186;-76
2023/01/18 06:07:41;;;;;;;4.93;0.70;;;;;;;;;;4781679;30;20054;-76
2023/01/18 06:10:13;;;;;;;9.93;1.10;;;;;;;;;;4781820;30;20062;-75
2023/01/18 06:12:44;;;;;;;4.72;0.90;;;;;;;;;;4779792;30;20543;-74
2023/01/18 06:15:14;;;;;;;6.65;1.02;;;;;;;;;;4780784;30;20055;-75
2023/01/18 06:17:46;;;;;;;11.77;1.13;;;;;;;;;;4781659;30;20408;-74
2023/01/18 06:20:17;;;;;;;8.35;1.25;;;;;;;;;;4781570;30;20059;-75
2023/01/18 06:22:47;;;;;;;4.55;1.20;;;;;;;;;;4781493;30;20515;-76
2023/01/18 06:25:17;;;;;;;5.07;0.80;;;;;;;;;;4781536;30;20059;-74
2023/01/18 06:27:47;;;;;;;5.25;1.10;;;;;;;;;;4781472;30;20599;-75
2023/01/18 06:30:18;;;;;;;4.90;0.88;;;;;;;;;;4765686;30;20055;-76
2023/01/18 06:32:50;;;;;;;5.38;0.90;;;;;;;;;;4781715;30;20055;-74
2023/01/18 06:35:20;;;;;;;5.07;0.90;;;;;;;;;;4781158;30;20076;-76
2023/01/18 06:37:51;;;;;;;5.05;1.05;;;;;;;;;;4781412;30;20499;-74
2023/01/18 06:40:22;;;;;;;7.10;1.30;;;;;;;;;;4781180;29;21161;-74
2023/01/18 06:42:53;;;;;;;7.63;1.00;;;;;;;;;;4781091;29;20051;-75
2023/01/18 06:45:24;;;;;;;5.18;0.90;;;;;;;;;;4781192;30;20439;-74
2023/01/18 06:47:56;;;;;;;5.95;1.10;;;;;;;;;;4781178;30;20048;-75
2023/01/18 06:50:26;;;;;;;3.78;0.70;;;;;;;;;;4781442;29;20059;-74
2023/01/18 06:52:57;;;;;;;8.48;1.27;;;;;;;;;;4783895;29;20106;-74
2023/01/18 06:55:27;;;;;;;5.30;0.95;;;;;;;;;;4784492;30;20047;-75
2023/01/18 06:57:58;;;;;;;9.27;1.52;;;;;;;;;;4784775;30;20055;-75
2023/01/18 07:00:28;;;;;;;5.35;0.95;;;;;;;;;;4784831;30;20416;-74
2023/01/18 07:02:58;;;;;;;4.03;1.15;;;;;;;;;;4782551;30;20077;-75
2023/01/18 07:05:29;;;;;;;5.95;1.02;;;;;;;;;;4784586;30;20064;-74
2023/01/18 07:07:59;;;;;;;4.47;1.00;;;;;;;;;;4784214;30;20062;-76
2023/01/18 07:10:29;;;;;;;3.03;1.00;;;;;;;;;;4783144;30;20383;-76
2023/01/18 07:13:00;;;;;;;3.72;1.25;;;;;;;;;;4784749;30;20066;-75
2023/01/18 07:15:31;;;;;;;5.75;0.90;;;;;;;;;;4784628;30;20055;-74
2023/01/18 07:18:01;;;;;;;6.78;1.33;;;;;;;;;;4784320;30;20388;-75
2023/01/18 07:20:31;;;;;;;6.13;0.98;;;;;;;;;;4783864;30;20047;-74
2023/01/18 07:23:03;;;;;;;1.98;0.70;;;;;;;;;;4782809;29;20058;-76
2023/01/18 07:25:35;;;;;;;3.38;0.73;;;;;;;;;;4784295;30;20070;-76
2023/01/18 07:28:05;;;;;;;4.68;0.82;;;;;;;;;;4783835;30;20059;-74
2023/01/18 07:30:35;;;;;;;3.83;0.70;;;;;;;;;;4783961;29;20412;-75
2023/01/18 07:33:06;;;;;;;2.28;0.70;;;;;;;;;;4783836;30;20126;-75
2023/01/18 07:35:38;;;;;;;1.88;0.50;;;;;;;;;;4784070;30;20062;-75
2023/01/18 07:38:08;;;;;;;3.75;0.80;;;;;;;;;;4784412;29;20081;-76
2023/01/18 07:40:38;;;;;;;2.78;0.70;;;;;;;;;;4784068;30;20554;-74
2023/01/18 07:43:08;;;;;;;2.33;0.70;;;;;;;;;;4783965;30;20060;-75
2023/01/18 07:45:39;;;;;;;3.35;1.13;;;;;;;;;;4783959;30;20046;-74
2023/01/18 07:48:10;;;;;;;2.28;0.52;;;;;;;;;;4783864;30;20074;-74
2023/01/18 07:50:40;;;;;;;1.83;0.40;;;;;;;;;;4784544;30;20055;-75
2023/01/18 07:53:10;;;;;;;3.45;0.43;;;;;;;;;;4784137;29;20484;-74
2023/01/18 07:55:40;;;;;;;0.80;0.40;;;;;;;;;;4784190;30;20051;-75
2023/01/18 07:58:11;;;;;;;1.98;0.40;;;;;;;;;;4783401;30;20066;-76
2023/01/18 08:00:43;;;;;;;1.45;0.60;;;;;;;;;;4783526;30;20048;-75
2023/01/18 08:03:16;;;;;;;4.35;1.10;;;;;;;;;;4782718;29;20062;-75
2023/01/18 08:05:47;;;;;;;0.98;0.73;;;;;;;;;;4783242;30;20123;-75
2023/01/18 08:08:18;;;;;;;2.50;0.40;;;;;;;;;;4783264;30;20051;-76
2023/01/18 08:10:54;;;;;;;2.17;0.50;;;;;;;;;;4783694;30;20055;-75
2023/01/18 08:13:26;;;;;;;2.58;0.50;;;;;;;;;;4783248;30;20512;-75
2023/01/18 08:16:01;;;;;;;1.15;0.60;;;;;;;;;;4783505;30;20051;-75
2023/01/18 08:18:32;;;;;;;1.83;0.45;;;;;;;;;;4783541;30;20051;-75
2023/01/18 08:21:03;;;;;;;4.43;0.52;;;;;;;;;;4783805;30;20040;-74
2023/01/18 08:23:33;;;;;;;0.80;0.40;;;;;;;;;;4783092;29;20055;-77
2023/01/18 08:26:04;;;;;;;1.00;0.38;;;;;;;;;;4783217;30;20055;-75
2023/01/18 08:28:35;;;;;;;0.63;0.40;;;;;;;;;;4783248;30;20458;-74
2023/01/18 08:31:16;;;;;;;0.30;0.17;;;;;;;;;;4783115;30;20066;-74
2023/01/18 08:33:48;;;;;;;0.75;0.32;;;;;;;;;;4782291;30;20534;-76
2023/01/18 08:36:22;;;;;;;1.10;0.65;;;;;;;;;;4783629;30;20055;-76
2023/01/18 08:38:58;;;;;;;0.93;0.52;;;;;;;;;;4782861;30;20059;-77
2023/01/18 08:41:31;;;;;;;3.25;0.32;;;;;;;;;;4782311;30;20063;-75
2023/01/18 08:44:02;;;;;;;1.42;0.30;;;;;;;;;;4782762;30;20066;-76
2023/01/18 08:46:32;;;;;;;2.10;0.43;;;;;;;;;;4782953;30;20062;-74
2023/01/18 08:49:04;;;;;;;1.17;0.60;;;;;;;;;;4781409;30;20518;-75
2023/01/18 08:51:35;;;;;;;1.40;0.68;;;;;;;;;;4782949;30;20067;-76
2023/01/18 08:54:06;;;;;;;1.45;0.50;;;;;;;;;;4782664;30;20056;-77
2023/01/18 08:56:36;;;;;;;2.33;0.30;;;;;;;;;;4782831;30;20046;-75
2023/01/18 08:59:09;;;;;;;1.75;0.60;;;;;;;;;;4782466;30;20054;-75
2023/01/18 09:01:40;;;;;;;1.48;0.52;;;;;;;;;;4782560;30;20571;-76
2023/01/18 09:04:12;;;;;;;5.63;1.25;;;;;;;;;;4782713;30;20530;-76
2023/01/18 09:06:45;;;;;;;2.10;0.70;;;;;;;;;;4782097;30;20408;-75
2023/01/18 09:09:16;;;;;;;3.97;0.57;;;;;;;;;;4782170;30;20419;-77
2023/01/18 09:11:46;;;;;;;2.05;0.50;;;;;;;;;;4782142;30;20058;-76
2023/01/18 09:14:17;;;;;;;1.80;0.52;;;;;;;;;;4781846;30;20499;-77
2023/01/18 09:16:49;;;;;;;2.10;0.57;;;;;;;;;;4782731;30;20169;-75
2023/01/18 09:19:18;;;;;;;3.70;0.50;;;;;;;;;;4782798;30;20058;-75
2023/01/18 09:21:52;;;;;;;5.43;0.50;;;;;;;;;;4782071;30;20066;-77
2023/01/18 09:24:23;;;;;;;3.90;0.50;;;;;;;;;;4780698;29;20068;-75
2023/01/18 09:26:55;;;;;;;0.63;0.30;;;;;;;;;;4782597;30;20063;-75
2023/01/18 09:29:25;;;;;;;2.25;0.57;;;;;;;;;;4781677;30;20074;-75
2023/01/18 09:31:56;;;;;;;2.20;0.43;;;;;;;;;;4781833;29;20086;-74
2023/01/18 09:34:26;;;;;;;3.05;0.30;;;;;;;;;;4781859;29;20047;-77
2023/01/18 09:36:56;;;;;;;4.85;0.80;;;;;;;;;;4782045;30;20641;-74
2023/01/18 09:39:27;;;;;;;0.98;0.50;;;;;;;;;;4781924;30;20058;-75
2023/01/18 09:42:16;;;;;;;1.27;0.30;;;;;;;;;;4782087;30;20047;-77
2023/01/18 09:44:51;;;;;;;2.28;0.60;;;;;;;;;;4781322;30;20051;-78
2023/01/18 09:47:47;;;;;;;2.42;0.63;;;;;;;;;;4781994;30;20511;-76
2023/01/18 09:50:20;;;;;;;3.28;0.80;;;;;;;;;;4781836;30;20052;-75
2023/01/18 09:53:08;;;;;;;5.15;0.60;;;;;;;;;;4781426;30;20051;-77
2023/01/18 09:56:19;;;;;;;3.95;0.77;;;;;;;;;;4781688;30;20054;-75
2023/01/18 09:58:59;;;;;;;13.18;1.05;;;;;;;;;;4781321;30;20051;-75
2023/01/18 10:01:32;;;;;;;9.05;0.75;;;;;;;;;;4781793;30;20059;-74
2023/01/18 10:04:29;;;;;;;3.50;0.60;;;;;;;;;;4781466;30;20055;-75
2023/01/18 10:07:15;;;;;;;1.55;0.60;;;;;;;;;;4781861;30;20411;-74
2023/01/18 10:09:51;;;;;;;4.72;1.10;;;;;;;;;;4781735;30;20059;-76
2023/01/18 10:12:37;;;;;;;3.25;0.63;;;;;;;;;;4782141;30;20048;-76
2023/01/18 10:15:21;;;;;;;2.58;0.40;;;;;;;;;;4781574;30;20062;-76
2023/01/18 10:17:59;;;;;;;2.30;0.32;;;;;;;;;;4779873;30;20064;-79
2023/01/18 10:20:35;;;;;;;1.63;0.50;;;;;;;;;;4786941;29;20074;-74
2023/01/18 10:23:09;;;;;;;4.63;0.80;;;;;;;;;;4799024;29;20523;-75
2023/01/18 10:25:51;;;;;;;3.08;0.68;;;;;;;;;;4799764;29;20051;-79
2023/01/18 10:28:35;;;;;;;1.20;0.50;;;;;;;;;;4800939;29;20062;-75
2023/01/18 10:31:43;;;;;;;1.85;0.55;;;;;;;;;;4802912;29;20043;-76
2023/01/18 10:34:22;;;;;;;4.03;0.40;;;;;;;;;;4803044;29;20574;-75
2023/01/18 10:37:05;;;;;;;2.15;0.30;;;;;;;;;;4801837;29;20055;-76
2023/01/18 10:39:40;;;;;;;6.72;0.52;;;;;;;;;;4803030;29;20055;-74
2023/01/18 10:42:22;;;;;;;1.17;0.30;;;;;;;;;;4803134;29;20055;-76
2023/01/18 10:44:52;;;;;;;0.95;0.25;;;;;;;;;;4802409;29;20051;-75
2023/01/18 10:47:22;;;;;;;1.08;0.50;;;;;;;;;;4802568;29;20063;-74
2023/01/18 10:49:58;;;;;;;0.40;0.28;;;;;;;;;;4802807;29;20047;-77
2023/01/18 10:52:31;;;;;;;0.90;0.00;;;;;;;;;;4802924;29;20517;-78
2023/01/18 10:55:07;;;;;;;1.00;0.70;;;;;;;;;;4801485;29;20527;-77
2023/01/18 10:57:45;;;;;;;4.97;0.30;;;;;;;;;;4802756;29;20047;-75
2023/01/18 11:00:31;;;;;;;2.80;0.30;;;;;;;;;;4802489;29;20058;-76
2023/01/18 11:03:04;;;;;;;0.10;0.10;;;;;;;;;;4803120;29;20796;-77
2023/01/18 11:05:45;;;;;;;1.55;0.85;;;;;;;;;;4802394;29;20074;-76
2023/01/18 11:08:23;;;;;;;0.95;0.28;;;;;;;;;;4802603;29;20059;-77
2023/01/18 11:11:02;;;;;;;0.00;0.00;;;;;;;;;;4802866;29;20531;-75
2023/01/18 11:13:43;;;;;;;0.47;0.20;;;;;;;;;;4802948;29;20054;-76
2023/01/18 11:16:19;;;;;;;0.60;0.43;;;;;;;;;;4802369;29;20496;-76
2023/01/18 11:18:57;;;;;;;1.42;0.20;;;;;;;;;;4802064;29;20054;-76
2023/01/18 11:21:49;;;;;;;0.10;0.10;;;;;;;;;;4802341;29;20054;-75
2023/01/18 11:24:30;;;;;;;1.48;0.15;;;;;;;;;;4801454;29;20058;-76
2023/01/18 11:27:05;;;;;;;0.17;0.10;;;;;;;;;;4801369;29;20079;-77
2023/01/18 11:29:40;;;;;;;0.57;0.30;;;;;;;;;;4802319;29;20168;-77
2023/01/18 11:32:28;;;;;;;0.20;0.10;;;;;;;;;;4801769;29;20043;-77
2023/01/18 11:35:00;;;;;;;0.80;0.40;;;;;;;;;;4802418;29;20046;-77
2023/01/18 11:37:35;;;;;;;1.02;0.20;;;;;;;;;;4802599;29;20059;-76
2023/01/18 11:40:31;;;;;;;0.20;0.20;;;;;;;;;;4802279;29;20066;-76
2023/01/18 11:43:19;;;;;;;0.80;0.20;;;;;;;;;;4802164;29;20521;-75
2023/01/18 11:46:00;;;;;;;0.30;0.30;;;;;;;;;;4801552;29;20066;-76
2023/01/18 11:48:44;;;;;;;1.95;0.32;;;;;;;;;;4801718;29;20058;-77
2023/01/18 11:51:24;;;;;;;0.55;0.40;;;;;;;;;;4801667;29;20054;-76
2023/01/18 11:54:05;;;;;;;0.15;0.08;;;;;;;;;;4801310;29;20062;-76
2023/01/18 11:56:50;;;;;;;0.30;0.30;;;;;;;;;;4801553;29;20661;-76
2023/01/18 11:59:30;;;;;;;0.68;0.52;;;;;;;;;;4800476;29;20059;-77
2023/01/18 12:02:18;;;;;;;0.35;0.10;;;;;;;;;;4801451;29;20047;-77
2023/01/18 12:05:15;;;;;;;0.30;0.15;;;;;;;;;;4801197;29;20053;-76
2023/01/18 12:08:21;;;;;;;0.43;0.20;;;;;;;;;;4801236;29;20055;-76
2023/01/18 12:10:54;;;;;;;0.47;0.40;;;;;;;;;;4801822;29;20055;-76
2023/01/18 12:13:38;;;;;;;0.08;0.05;;;;;;;;;;4801506;29;20139;-77
2023/01/18 12:16:14;;;;;;;0.10;0.10;;;;;;;;;;4801443;29;20062;-76
2023/01/18 12:19:21;;;;;;;0.43;0.38;;;;;;;;;;4801248;29;20047;-77
2023/01/18 12:22:22;;;;;;;0.10;0.10;;;;;;;;;;4799940;29;20059;-76
2023/01/18 12:24:58;;;;;;;0.68;0.28;;;;;;;;;;4799222;29;20419;-76
2023/01/18 12:27:34;;;;;;;0.52;0.10;;;;;;;;;;4801067;29;20051;-76
2023/01/18 12:30:34;;;;;;;0.30;0.20;;;;;;;;;;4799895;29;20430;-77
2023/01/18 12:33:19;;;;;;;0.55;0.55;;;;;;;;;;4801241;29;20051;-75
2023/01/18 12:36:22;;;;;;;2.85;0.35;;;;;;;;;;4801024;29;20047;-77
2023/01/18 12:38:55;;;;;;;0.20;0.20;;;;;;;;;;4801192;29;20373;-76
2023/01/18 12:41:52;;;;;;;0.30;0.30;;;;;;;;;;4801537;29;20051;-78
2023/01/18 12:44:43;;;;;;;3.25;0.20;;;;;;;;;;4799589;29;20055;-75
2023/01/18 12:47:17;;;;;;;0.10;0.10;;;;;;;;;;4801055;29;20054;-75
2023/01/18 12:49:51;;;;;;;0.52;0.30;;;;;;;;;;4799679;29;20057;-75
2023/01/18 12:52:24;;;;;;;0.45;0.20;;;;;;;;;;4801319;29;20070;-75
2023/01/18 12:54:59;;;;;;;0.28;0.28;;;;;;;;;;4801050;29;20061;-75
2023/01/18 12:57:32;;;;;;;0.00;0.00;;;;;;;;;;4801291;29;20050;-75
2023/01/18 13:00:16;;;;;;;0.10;0.00;;;;;;;;;;4801035;29;20051;-77
2023/01/18 13:02:55;;;;;;;1.85;0.50;;;;;;;;;;4800145;29;20415;-76
2023/01/18 13:05:51;;;;;;;0.60;0.10;;;;;;;;;;4800746;29;20058;-77
2023/01/18 13:08:39;;;;;;;0.28;0.10;;;;;;;;;;4800140;29;20085;-76
2023/01/18 13:11:24;;;;;;;0.40;0.10;;;;;;;;;;4800199;29;20054;-74
2023/01/18 13:14:27;;;;;;;3.10;0.20;;;;;;;;;;4800630;29;20053;-81
2023/01/18 13:17:11;;;;;;;1.35;0.10;;;;;;;;;;4800391;29;20059;-78
2023/01/18 13:19:53;;;;;;;0.43;0.35;;;;;;;;;;4800214;29;20571;-77
2023/01/18 13:22:45;;;;;;;2.63;0.65;;;;;;;;;;4800451;29;20503;-76
2023/01/18 13:25:52;;;;;;;0.20;0.20;;;;;;;;;;4798160;29;20058;-77
2023/01/18 13:28:25;;;;;;;0.98;0.15;;;;;;;;;;4800424;29;20051;-74
2023/01/18 13:30:59;;;;;;;0.30;0.10;;;;;;;;;;4799877;29;20073;-74
2023/01/18 13:33:36;;;;;;;0.50;0.10;;;;;;;;;;4799984;29;20508;-75
2023/01/18 13:36:17;;;;;;;2.13;0.10;;;;;;;;;;4800401;29;20053;-74
2023/01/18 13:39:14;;;;;;;0.35;0.15;;;;;;;;;;4799899;29;21040;-75
2023/01/18 13:42:06;;;;;;;0.20;0.20;;;;;;;;;;4801146;29;20066;-75
2023/01/18 13:44:44;;;;;;;0.22;0.10;;;;;;;;;;4799740;29;20507;-75
2023/01/18 13:47:40;;;;;;;0.80;0.20;;;;;;;;;;4800253;29;20555;-76
2023/01/18 13:50:38;;;;;;;1.10;0.40;;;;;;;;;;4799987;29;20521;-75
2023/01/18 13:53:12;;;;;;;0.25;0.17;;;;;;;;;;4798719;29;20054;-79
2023/01/18 13:55:58;;;;;;;0.38;0.15;;;;;;;;;;4800266;29;20055;-75
2023/01/18 13:58:37;;;;;;;1.00;0.10;;;;;;;;;;4800043;29;20059;-75
2023/01/18 14:01:21;;;;;;;1.27;0.20;;;;;;;;;;4799189;29;20051;-78
2023/01/18 14:03:53;;;;;;;0.98;0.10;;;;;;;;;;4799677;29;20065;-78
2023/01/18 14:06:35;;;;;;;0.20;0.10;;;;;;;;;;4799789;29;20062;-77
2023/01/18 14:09:13;;;;;;;0.65;0.10;;;;;;;;;;4799398;29;20054;-76
2023/01/18 14:11:55;;;;;;;0.47;0.10;;;;;;;;;;4799622;29;20059;-74
2023/01/18 14:14:33;;;;;;;0.80;0.30;;;;;;;;;;4799502;29;20050;-77
2023/01/18 14:17:15;;;;;;;1.02;0.20;;;;;;;;;;4799723;29;20050;-78
2023/01/18 14:19:51;;;;;;;0.38;0.30;;;;;;;;;;4799886;29;21127;-76
2023/01/18 14:22:55;;;;;;;1.73;0.43;;;;;;;;;;4800148;29;20055;-76
2023/01/18 14:25:31;;;;;;;0.50;0.30;;;;;;;;;;4800103;29;20046;-78
2023/01/18 14:28:16;;;;;;;0.80;0.30;;;;;;;;;;4799749;29;20081;-76
2023/01/18 14:30:48;;;;;;;1.50;0.50;;;;;;;;;;4798146;29;20457;-77
2023/01/18 14:33:32;;;;;;;0.52;0.25;;;;;;;;;;4799300;29;20051;-74
2023/01/18 14:36:07;;;;;;;1.08;0.40;;;;;;;;;;4799247;29;21218;-75
2023/01/18 14:38:38;;;;;;;1.65;0.30;;;;;;;;;;4800215;29;20051;-75
2023/01/18 14:41:16;;;;;;;1.13;0.30;;;;;;;;;;4799443;29;20525;-75
2023/01/18 14:43:48;;;;;;;2.58;0.40;;;;;;;;;;4799456;29;20055;-76
2023/01/18 14:46:28;;;;;;;0.35;0.20;;;;;;;;;;4798230;29;20054;-77
2023/01/18 14:49:00;;;;;;;0.57;0.47;;;;;;;;;;4799502;29;20057;-77
2023/01/18 14:51:32;;;;;;;1.42;0.35;;;;;;;;;;4801496;29;20054;-76
2023/01/18 14:54:05;;;;;;;1.45;0.40;;;;;;;;;;4802115;29;20062;-77
2023/01/18 14:56:41;;;;;;;1.13;0.40;;;;;;;;;;4797945;29;20066;-77
2023/01/18 14:59:19;;;;;;;0.17;0.17;;;;;;;;;;4799272;29;20061;-79
2023/01/18 15:02:02;;;;;;;1.45;0.50;;;;;;;;;;4799224;29;20055;-77
2023/01/18 15:04:37;;;;;;;0.82;0.30;;;;;;;;;;4799465;29;20499;-79
2023/01/18 15:07:12;;;;;;;1.58;0.30;;;;;;;;;;4799478;29;20055;-79
2023/01/18 15:09:44;;;;;;;0.68;0.20;;;;;;;;;;4799060;29;20503;-77
2023/01/18 15:12:23;;;;;;;1.05;0.22;;;;;;;;;;4798239;29;20066;-78
2023/01/18 15:14:56;;;;;;;1.70;0.30;;;;;;;;;;4801429;29;20047;-77
2023/01/18 15:17:26;;;;;;;1.13;0.30;;;;;;;;;;4800038;29;20058;-76
2023/01/18 15:20:01;;;;;;;1.05;0.38;;;;;;;;;;4803382;29;20058;-78
2023/01/18 15:22:36;;;;;;;0.70;0.50;;;;;;;;;;4802292;29;20566;-77
2023/01/18 15:25:23;;;;;;;2.30;0.55;;;;;;;;;;4802485;29;20054;-78
2023/01/18 15:27:58;;;;;;;1.58;0.30;;;;;;;;;;4802576;29;20055;-77
2023/01/18 15:30:40;;;;;;;3.25;0.60;;;;;;;;;;4802575;29;20058;-77
2023/01/18 15:33:10;;;;;;;3.88;0.60;;;;;;;;;;4802143;29;20055;-77
2023/01/18 15:35:42;;;;;;;2.72;0.30;;;;;;;;;;4801257;29;20057;-76
2023/01/18 15:38:16;;;;;;;0.55;0.40;;;;;;;;;;4801893;29;20051;-76
2023/01/18 15:41:16;;;;;;;0.70;0.30;;;;;;;;;;4801811;29;20051;-78
2023/01/18 15:43:48;;;;;;;3.05;0.40;;;;;;;;;;4802083;29;20605;-76
2023/01/18 15:46:19;;;;;;;1.15;0.40;;;;;;;;;;4802213;29;20530;-79
2023/01/18 15:48:59;;;;;;;3.50;0.30;;;;;;;;;;4802431;29;20058;-76
2023/01/18 15:52:03;;;;;;;0.38;0.20;;;;;;;;;;4801922;29;20892;-75
2023/01/18 15:54:29;;;;;;;1.60;0.38;;;;;;;;;;4799612;29;20061;-80
2023/01/18 15:57:11;;;;;;;1.27;0.40;;;;;;;;;;4800616;29;20066;-76
2023/01/18 15:59:42;;;;;;;1.05;0.28;;;;;;;;;;4801850;29;20050;-77
2023/01/18 16:02:19;;;;;;;1.75;0.30;;;;;;;;;;4801883;29;20046;-75
2023/01/18 16:05:19;;;;;;;0.50;0.30;;;;;;;;;;4801602;29;20508;-76
2023/01/18 16:08:08;;;;;;;0.63;0.20;;;;;;;;;;4801209;29;20050;-76